createdAt,value
2023-04-24T00:02:19.965Z,100.00
2023-04-24T00:04:48.416Z,100.00
2023-04-24T00:07:17.733Z,100.00
2023-04-24T00:09:46.107Z,100.00
2023-04-24T00:12:14.376Z,100.00
2023-04-24T00:14:42.649Z,100.00
2023-04-24T00:17:12.341Z,100.00
2023-04-24T00:19:40.910Z,100.00
2023-04-24T00:22:09.638Z,100.00
2023-04-24T00:24:37.843Z,100.00
2023-04-24T00:27:06.202Z,100.00
2023-04-24T00:29:34.508Z,100.00
2023-04-24T00:32:02.852Z,100.00
2023-04-24T00:34:33.638Z,100.00
2023-04-24T00:37:02.117Z,100.00
2023-04-24T00:39:30.452Z,100.00
2023-04-24T00:41:59.038Z,100.00
2023-04-24T00:44:27.452Z,100.00
2023-04-24T00:46:56.967Z,100.00
2023-04-24T00:49:25.434Z,100.00
2023-04-24T00:51:55.232Z,100.00
2023-04-24T00:54:23.453Z,100.00
2023-04-24T00:56:52.460Z,100.00
2023-04-24T00:59:21.051Z,100.00
2023-04-24T01:01:49.741Z,100.00
2023-04-24T01:04:20.322Z,100.00
2023-04-24T01:06:48.714Z,100.00
2023-04-24T01:09:20.231Z,100.00
2023-04-24T01:11:49.266Z,100.00
2023-04-24T01:14:17.590Z,100.00
2023-04-24T01:16:45.962Z,100.00
2023-04-24T01:19:15.961Z,100.00
2023-04-24T01:21:46.278Z,100.00
2023-04-24T01:24:16.323Z,100.00
2023-04-24T01:26:44.721Z,100.00
2023-04-24T01:29:13.606Z,100.00
2023-04-24T01:31:42.223Z,100.00
2023-04-24T01:34:10.597Z,100.00
2023-04-24T01:36:40.124Z,100.00
2023-04-24T01:39:08.738Z,100.00
2023-04-24T01:41:38.630Z,100.00
2023-04-24T01:44:07.277Z,100.00
2023-04-24T01:46:36.908Z,100.00
2023-04-24T01:49:05.250Z,100.00
2023-04-24T01:51:33.545Z,100.00
2023-04-24T01:54:01.757Z,100.00
2023-04-24T01:56:32.012Z,100.00
2023-04-24T01:59:03.197Z,100.00
2023-04-24T02:01:37.222Z,100.00
2023-04-24T02:04:05.987Z,100.00
2023-04-24T02:06:34.852Z,100.00
2023-04-24T02:09:04.364Z,100.00
2023-04-24T02:11:32.838Z,100.00
2023-04-24T02:14:02.498Z,100.00
2023-04-24T02:16:33.477Z,100.00
2023-04-24T02:19:02.188Z,100.00
2023-04-24T02:21:31.841Z,100.00
2023-04-24T02:24:00.225Z,100.00
2023-04-24T02:26:28.475Z,100.00
2023-04-24T02:28:56.888Z,100.00
2023-04-24T02:31:26.608Z,100.00
2023-04-24T02:33:54.878Z,100.00
2023-04-24T02:36:23.393Z,100.00
2023-04-24T02:38:51.622Z,100.00
2023-04-24T02:41:21.264Z,100.00
2023-04-24T02:43:49.521Z,100.00
2023-04-24T02:46:17.933Z,100.00
2023-04-24T02:48:47.729Z,100.00
2023-04-24T02:51:16.006Z,100.00
2023-04-24T02:53:44.525Z,100.00
2023-04-24T02:56:13.350Z,100.00
2023-04-24T02:58:42.087Z,100.00
2023-04-24T03:01:11.288Z,100.00
2023-04-24T03:03:40.171Z,100.00
2023-04-24T03:06:10.210Z,100.00
2023-04-24T03:08:38.786Z,100.00
2023-04-24T03:11:07.063Z,100.00
2023-04-24T03:13:36.029Z,100.00
2023-04-24T03:16:04.338Z,100.00
2023-04-24T03:18:32.926Z,100.00
2023-04-24T03:21:01.231Z,100.00
2023-04-24T03:23:30.993Z,100.00
2023-04-24T03:25:59.409Z,100.00
2023-04-24T03:28:27.904Z,100.00
2023-04-24T03:30:56.145Z,100.00
2023-04-24T03:33:24.583Z,100.00
2023-04-24T03:35:52.827Z,100.00
2023-04-24T03:38:21.034Z,100.00
2023-04-24T03:40:51.000Z,100.00
2023-04-24T03:43:19.294Z,100.00
2023-04-24T03:45:47.722Z,100.00
2023-04-24T03:48:15.982Z,100.00
2023-04-24T03:50:44.703Z,100.00
2023-04-24T03:53:12.915Z,100.00
2023-04-24T03:55:41.297Z,96.27
2023-04-24T03:58:11.356Z,91.12
2023-04-24T04:00:41.415Z,85.35
2023-04-24T04:03:09.829Z,81.40
2023-04-24T04:05:38.469Z,77.28
2023-04-24T04:08:06.922Z,75.84
2023-04-24T04:10:35.360Z,73.96
2023-04-24T04:13:03.736Z,75.08
2023-04-24T04:15:33.731Z,73.84
2023-04-24T04:18:01.967Z,69.86
2023-04-24T04:20:30.397Z,69.34
2023-04-24T04:22:58.664Z,71.94
2023-04-24T04:25:26.942Z,71.36
2023-04-24T04:27:55.484Z,68.59
2023-04-24T04:30:24.612Z,70.43
2023-04-24T04:32:54.420Z,68.56
2023-04-24T04:35:23.259Z,65.04
2023-04-24T04:37:52.512Z,61.03
2023-04-24T04:40:20.800Z,59.10
2023-04-24T04:42:49.103Z,63.25
2023-04-24T04:45:17.871Z,68.73
2023-04-24T04:47:46.598Z,69.41
2023-04-24T04:50:17.739Z,68.62
2023-04-24T04:52:46.196Z,64.91
2023-04-24T04:55:15.907Z,62.75
2023-04-24T04:57:44.218Z,54.98
2023-04-24T05:00:13.764Z,53.09
2023-04-24T05:02:42.762Z,55.49
2023-04-24T05:05:11.882Z,50.41
2023-04-24T05:07:41.550Z,59.06
2023-04-24T05:10:11.691Z,58.04
2023-04-24T05:12:39.918Z,51.92
2023-04-24T05:15:10.989Z,51.52
2023-04-24T05:17:40.993Z,49.15
2023-04-24T05:20:11.989Z,49.63
2023-04-24T05:22:41.900Z,51.56
2023-04-24T05:25:10.590Z,56.88
2023-04-24T05:27:38.857Z,57.94
2023-04-24T05:30:08.611Z,60.21
2023-04-24T05:32:36.849Z,62.41
2023-04-24T05:35:05.543Z,57.03
2023-04-24T05:37:33.910Z,52.24
2023-04-24T05:40:06.312Z,49.63
2023-04-24T05:42:34.600Z,46.97
2023-04-24T05:45:03.738Z,46.57
2023-04-24T05:47:32.639Z,45.57
2023-04-24T05:50:01.139Z,44.96
2023-04-24T05:52:29.420Z,43.93
2023-04-24T05:54:57.603Z,44.85
2023-04-24T05:57:27.486Z,44.65
2023-04-24T05:59:55.850Z,44.26
2023-04-24T06:02:24.432Z,45.77
2023-04-24T06:04:53.017Z,43.98
2023-04-24T06:07:21.452Z,42.46
2023-04-24T06:09:49.930Z,45.71
2023-04-24T06:12:18.201Z,44.76
2023-04-24T06:14:47.879Z,45.10
2023-04-24T06:17:16.473Z,47.74
2023-04-24T06:19:45.121Z,45.38
2023-04-24T06:22:13.515Z,49.26
2023-04-24T06:24:42.372Z,48.57
2023-04-24T06:27:10.978Z,47.25
2023-04-24T06:29:39.217Z,49.58
2023-04-24T06:32:09.043Z,45.78
2023-04-24T06:34:37.699Z,46.77
2023-04-24T06:37:06.121Z,50.91
2023-04-24T06:39:34.384Z,48.36
2023-04-24T06:42:02.735Z,46.59
2023-04-24T06:44:30.926Z,46.42
2023-04-24T06:46:59.294Z,48.66
2023-04-24T06:49:28.976Z,50.22
2023-04-24T06:51:57.390Z,49.37
2023-04-24T06:54:25.687Z,50.40
2023-04-24T06:56:53.954Z,48.63
2023-04-24T06:59:22.365Z,48.40
2023-04-24T07:01:51.372Z,47.36
2023-04-24T07:04:21.250Z,47.24
2023-04-24T07:06:52.476Z,46.32
2023-04-24T07:09:21.107Z,48.36
2023-04-24T07:11:49.655Z,49.07
2023-04-24T07:14:18.273Z,49.70
2023-04-24T07:16:47.060Z,47.92
2023-04-24T07:19:16.054Z,52.55
2023-04-24T07:21:44.329Z,53.39
2023-04-24T07:24:14.021Z,52.48
2023-04-24T07:26:42.677Z,53.65
2023-04-24T07:29:11.532Z,53.92
2023-04-24T07:31:39.909Z,56.46
2023-04-24T07:34:08.181Z,59.04
2023-04-24T07:36:36.954Z,66.40
2023-04-24T07:39:05.526Z,71.51
2023-04-24T07:41:35.203Z,76.14
2023-04-24T07:44:03.516Z,79.80
2023-04-24T07:46:32.777Z,83.52
2023-04-24T07:49:12.476Z,85.81
2023-04-24T07:51:42.617Z,92.17
2023-04-24T07:54:11.407Z,91.76
2023-04-24T07:56:41.270Z,96.15
2023-04-24T07:59:10.831Z,97.89
2023-04-24T08:01:39.184Z,100.00
2023-04-24T08:04:07.907Z,100.00
2023-04-24T08:06:36.793Z,100.00
2023-04-24T08:09:05.561Z,99.23
2023-04-24T08:11:34.112Z,95.73
2023-04-24T08:14:03.796Z,97.40
2023-04-24T08:16:32.150Z,100.00
2023-04-24T08:19:00.607Z,100.00
2023-04-24T08:21:29.061Z,100.00
2023-04-24T08:23:57.232Z,100.00
2023-04-24T08:26:25.843Z,100.00
2023-04-24T08:28:54.365Z,100.00
2023-04-24T08:31:26.162Z,100.00
2023-04-24T08:33:54.415Z,100.00
2023-04-24T08:36:23.796Z,100.00
2023-04-24T08:38:55.162Z,100.00
2023-04-24T08:41:27.210Z,100.00
2023-04-24T08:43:56.510Z,100.00
2023-04-24T08:46:27.039Z,100.00
2023-04-24T08:48:55.632Z,100.00
2023-04-24T08:51:24.943Z,100.00
2023-04-24T08:53:55.950Z,100.00
2023-04-24T08:56:25.418Z,100.00
2023-04-24T08:58:54.999Z,100.00
2023-04-24T09:01:23.486Z,100.00
2023-04-24T09:03:55.794Z,100.00
2023-04-24T09:06:26.387Z,100.00
2023-04-24T09:08:56.950Z,100.00
2023-04-24T09:11:27.064Z,100.00
2023-04-24T09:13:56.635Z,100.00
2023-04-24T09:16:25.498Z,100.00
2023-04-24T09:18:56.050Z,100.00
2023-04-24T09:21:25.124Z,100.00
2023-04-24T09:24:03.988Z,100.00
2023-04-24T09:26:34.172Z,100.00
2023-04-24T09:29:02.964Z,100.00
2023-04-24T09:31:31.766Z,99.94
2023-04-24T09:34:06.478Z,100.00
2023-04-24T09:36:38.850Z,100.00
2023-04-24T09:39:09.450Z,100.00
2023-04-24T09:41:47.062Z,100.00
2023-04-24T09:44:17.324Z,100.00
2023-04-24T09:46:47.357Z,100.00
2023-04-24T09:49:18.712Z,100.00
2023-04-24T09:51:47.016Z,100.00
2023-04-24T09:54:21.214Z,100.00
2023-04-24T09:56:50.873Z,100.00
2023-04-24T09:59:20.226Z,100.00
2023-04-24T10:01:50.373Z,100.00
2023-04-24T10:04:21.549Z,100.00
2023-04-24T10:06:51.210Z,100.00
2023-04-24T10:09:20.646Z,100.00
2023-04-24T10:11:52.006Z,100.00
2023-04-24T10:14:21.718Z,100.00
2023-04-24T10:16:50.727Z,100.00
2023-04-24T10:19:21.217Z,100.00
2023-04-24T10:21:49.624Z,100.00
2023-04-24T10:24:19.544Z,100.00
2023-04-24T10:26:49.407Z,100.00
2023-04-24T10:29:22.604Z,100.00
2023-04-24T10:31:50.979Z,100.00
2023-04-24T10:34:23.377Z,100.00
2023-04-24T10:36:57.778Z,100.00
2023-04-24T10:39:27.234Z,100.00
2023-04-24T10:41:58.515Z,100.00
2023-04-24T10:44:27.824Z,100.00
2023-04-24T10:46:57.797Z,100.00
2023-04-24T10:49:32.522Z,100.00
2023-04-24T10:52:06.256Z,100.00
2023-04-24T10:54:38.537Z,100.00
2023-04-24T10:57:33.827Z,100.00
2023-04-24T11:00:20.657Z,100.00
2023-04-24T11:02:54.231Z,100.00
2023-04-24T11:05:24.908Z,100.00
2023-04-24T11:08:15.713Z,100.00
2023-04-24T11:10:47.447Z,100.00
2023-04-24T11:13:17.907Z,100.00
2023-04-24T11:15:46.308Z,100.00
2023-04-24T11:18:19.601Z,100.00
2023-04-24T11:20:49.333Z,100.00
2023-04-24T11:23:18.829Z,100.00
2023-04-24T11:25:47.821Z,100.00
2023-04-24T11:28:18.669Z,100.00
2023-04-24T11:30:47.063Z,100.00
2023-04-24T11:33:22.758Z,100.00
2023-04-24T11:35:53.707Z,100.00
2023-04-24T11:38:24.547Z,100.00
2023-04-24T11:40:54.511Z,100.00
2023-04-24T11:43:23.881Z,100.00
2023-04-24T11:45:52.265Z,100.00
2023-04-24T11:48:23.776Z,100.00
2023-04-24T11:50:54.081Z,100.00
2023-04-24T11:53:23.203Z,100.00
2023-04-24T11:55:51.537Z,100.00
2023-04-24T11:58:23.554Z,100.00
2023-04-24T12:00:59.367Z,100.00
2023-04-24T12:03:28.032Z,100.00
2023-04-24T12:06:08.958Z,100.00
2023-04-24T12:08:38.632Z,100.00
2023-04-24T12:11:09.689Z,100.00
2023-04-24T12:13:38.381Z,100.00
2023-04-24T12:16:07.344Z,100.00
2023-04-24T12:18:35.685Z,100.00
2023-04-24T12:21:25.009Z,100.00
2023-04-24T12:23:53.274Z,100.00
2023-04-24T12:26:23.729Z,100.00
2023-04-24T12:28:52.325Z,100.00
2023-04-24T12:31:23.671Z,100.00
2023-04-24T12:33:52.211Z,100.00
2023-04-24T12:36:20.541Z,100.00
2023-04-24T12:38:55.359Z,100.00
2023-04-24T12:41:23.626Z,100.00
2023-04-24T12:43:56.625Z,100.00
2023-04-24T12:46:25.097Z,100.00
2023-04-24T12:48:53.580Z,100.00
2023-04-24T12:51:21.901Z,100.00
2023-04-24T12:53:51.618Z,100.00
2023-04-24T12:56:19.981Z,100.00
2023-04-24T12:58:48.558Z,100.00
2023-04-24T13:01:16.963Z,100.00
2023-04-24T13:03:46.313Z,100.00
2023-04-24T13:06:15.013Z,100.00
2023-04-24T13:08:43.526Z,100.00
2023-04-24T13:11:13.249Z,100.00
2023-04-24T13:13:41.731Z,100.00
2023-04-24T13:16:10.289Z,100.00
2023-04-24T13:18:38.592Z,100.00
2023-04-24T13:21:06.972Z,100.00
2023-04-24T13:23:35.749Z,100.00
2023-04-24T13:26:04.220Z,100.00
2023-04-24T13:28:33.885Z,100.00
2023-04-24T13:31:02.283Z,100.00
2023-04-24T13:33:31.182Z,100.00
2023-04-24T13:35:59.698Z,100.00
2023-04-24T13:38:27.969Z,100.00
2023-04-24T13:40:56.340Z,100.00
2023-04-24T13:43:24.965Z,100.00
2023-04-24T13:45:54.778Z,100.00
2023-04-24T13:48:23.202Z,100.00
2023-04-24T13:50:51.518Z,100.00
2023-04-24T13:53:20.009Z,100.00
2023-04-24T13:55:48.347Z,100.00
2023-04-24T13:58:17.064Z,100.00
2023-04-24T14:00:45.411Z,100.00
2023-04-24T14:03:15.287Z,100.00
2023-04-24T14:05:44.500Z,100.00
2023-04-24T14:08:12.982Z,100.00
2023-04-24T14:10:41.383Z,100.00
2023-04-24T14:13:09.659Z,100.00
2023-04-24T14:15:38.297Z,100.00
2023-04-24T14:18:06.948Z,100.00
2023-04-24T14:20:36.692Z,100.00
2023-04-24T14:23:05.507Z,100.00
2023-04-24T14:25:33.810Z,100.00
2023-04-24T14:28:02.151Z,100.00
2023-04-24T14:30:30.545Z,100.00
2023-04-24T14:32:59.053Z,100.00
2023-04-24T14:35:28.629Z,100.00
2023-04-24T14:37:59.343Z,100.00
2023-04-24T14:40:48.587Z,100.00
2023-04-24T14:43:16.035Z,100.00
2023-04-24T14:45:44.348Z,100.00
2023-04-24T14:48:12.640Z,100.00
2023-04-24T14:50:41.107Z,100.00
2023-04-24T14:53:10.858Z,100.00
2023-04-24T14:55:39.215Z,100.00
2023-04-24T14:58:07.488Z,100.00
2023-04-24T15:00:35.950Z,100.00
2023-04-24T15:03:04.517Z,100.00
2023-04-24T15:05:33.395Z,100.00
2023-04-24T15:08:01.947Z,100.00
2023-04-24T15:10:31.752Z,100.00
2023-04-24T15:13:00.296Z,100.00
2023-04-24T15:15:28.612Z,100.00
2023-04-24T15:17:57.002Z,100.00
2023-04-24T15:20:25.381Z,100.00
2023-04-24T15:22:53.713Z,100.00
2023-04-24T15:25:22.119Z,100.00
2023-04-24T15:27:51.881Z,100.00
2023-04-24T15:30:20.178Z,100.00
2023-04-24T15:32:48.576Z,100.00
2023-04-24T15:35:17.752Z,100.00
2023-04-24T15:37:46.510Z,100.00
2023-04-24T15:40:16.904Z,100.00
2023-04-24T15:42:45.773Z,100.00
2023-04-24T15:45:15.564Z,100.00
2023-04-24T15:47:43.869Z,100.00
2023-04-24T15:50:14.723Z,100.00
2023-04-24T15:52:43.502Z,100.00
2023-04-24T15:55:12.319Z,100.00
2023-04-24T15:57:40.871Z,100.00
2023-04-24T16:00:11.252Z,100.00
2023-04-24T16:02:41.609Z,100.00
2023-04-24T16:05:11.263Z,100.00
2023-04-24T16:07:40.515Z,100.00
2023-04-24T16:10:09.662Z,100.00
2023-04-24T16:12:38.345Z,100.00
2023-04-24T16:15:08.040Z,100.00
2023-04-24T16:17:36.417Z,100.00
2023-04-24T16:20:07.762Z,100.00
2023-04-24T16:22:36.252Z,100.00
2023-04-24T16:25:04.991Z,100.00
2023-04-24T16:27:33.546Z,100.00
2023-04-24T16:30:02.257Z,100.00
2023-04-24T16:32:30.999Z,100.00
2023-04-24T16:34:59.470Z,100.00
2023-04-24T16:37:30.824Z,100.00
2023-04-24T16:39:59.454Z,100.00
2023-04-24T16:42:27.950Z,100.00
2023-04-24T16:44:56.394Z,100.00
2023-04-24T16:47:25.021Z,100.00
2023-04-24T16:49:53.553Z,100.00
2023-04-24T16:52:22.197Z,100.00
2023-04-24T16:54:52.172Z,100.00
2023-04-24T16:57:20.671Z,100.00
2023-04-24T16:59:49.353Z,100.00
2023-04-24T17:02:17.933Z,100.00
2023-04-24T17:04:46.690Z,100.00
2023-04-24T17:07:15.609Z,100.00
2023-04-24T17:09:44.076Z,100.00
2023-04-24T17:12:13.977Z,100.00
2023-04-24T17:14:42.634Z,100.00
2023-04-24T17:17:11.547Z,100.00
2023-04-24T17:19:40.455Z,100.00
2023-04-24T17:22:09.022Z,100.00
2023-04-24T17:24:37.556Z,100.00
2023-04-24T17:27:14.508Z,100.00
2023-04-24T17:29:45.406Z,100.00
2023-04-24T17:32:14.008Z,100.00
2023-04-24T17:34:42.973Z,100.00
2023-04-24T17:37:11.642Z,100.00
2023-04-24T17:39:40.802Z,100.00
2023-04-24T17:42:09.176Z,100.00
2023-04-24T17:44:37.546Z,100.00
2023-04-24T17:47:07.301Z,100.00
2023-04-24T17:49:37.492Z,100.00
2023-04-24T17:52:06.008Z,100.00
2023-04-24T17:54:34.357Z,100.00
2023-04-24T17:57:03.105Z,100.00
2023-04-24T17:59:31.525Z,100.00
2023-04-24T18:02:00.037Z,100.00
2023-04-24T18:04:30.164Z,100.00
2023-04-24T18:06:58.695Z,100.00
2023-04-24T18:09:27.055Z,100.00
2023-04-24T18:11:57.454Z,100.00
2023-04-24T18:14:28.415Z,100.00
2023-04-24T18:16:58.150Z,100.00
2023-04-24T18:19:26.664Z,100.00
2023-04-24T18:21:56.481Z,100.00
2023-04-24T18:24:25.047Z,100.00
2023-04-24T18:26:53.470Z,100.00
2023-04-24T18:29:22.127Z,100.00
2023-04-24T18:31:50.596Z,100.00
2023-04-24T18:34:19.168Z,100.00
2023-04-24T18:36:47.572Z,100.00
2023-04-24T18:39:17.277Z,100.00
2023-04-24T18:41:45.599Z,100.00
2023-04-24T18:44:15.319Z,100.00
2023-04-24T18:46:43.942Z,100.00
2023-04-24T18:49:12.414Z,100.00
2023-04-24T18:51:52.485Z,100.00
2023-04-24T18:54:26.185Z,100.00
2023-04-24T18:56:54.582Z,100.00
2023-04-24T18:59:22.978Z,100.00
2023-04-24T19:01:51.399Z,100.00
2023-04-24T19:04:20.962Z,100.00
2023-04-24T19:06:49.482Z,100.00
2023-04-24T19:09:17.930Z,100.00
2023-04-24T19:11:47.839Z,100.00
2023-04-24T19:14:16.334Z,100.00
2023-04-24T19:16:44.763Z,100.00
2023-04-24T19:19:13.305Z,100.00
2023-04-24T19:21:41.733Z,100.00
2023-04-24T19:24:11.350Z,100.00
2023-04-24T19:26:39.929Z,100.00
2023-04-24T19:29:09.719Z,100.00
2023-04-24T19:31:38.058Z,100.00
2023-04-24T19:34:06.755Z,100.00
2023-04-24T19:36:35.218Z,100.00
2023-04-24T19:39:04.128Z,100.00
2023-04-24T19:41:32.438Z,100.00
2023-04-24T19:44:00.958Z,100.00
2023-04-24T19:46:30.884Z,100.00
2023-04-24T19:48:59.208Z,100.00
2023-04-24T19:51:27.768Z,100.00
2023-04-24T19:53:56.929Z,100.00
2023-04-24T19:56:25.367Z,100.00
2023-04-24T19:58:53.680Z,100.00
2023-04-24T20:01:22.201Z,100.00
2023-04-24T20:03:52.092Z,100.00
2023-04-24T20:06:20.594Z,100.00
2023-04-24T20:08:49.283Z,100.00
2023-04-24T20:11:17.951Z,100.00
2023-04-24T20:13:46.373Z,100.00
2023-04-24T20:16:15.305Z,100.00
2023-04-24T20:18:44.781Z,100.00
2023-04-24T20:21:15.022Z,100.00
2023-04-24T20:23:43.363Z,100.00
2023-04-24T20:26:11.652Z,100.00
2023-04-24T20:28:39.965Z,100.00
2023-04-24T20:31:08.496Z,100.00
2023-04-24T20:33:41.681Z,100.00
2023-04-24T20:36:10.803Z,100.00
2023-04-24T20:38:40.651Z,100.00
2023-04-24T20:41:10.500Z,100.00
2023-04-24T20:43:38.805Z,100.00
2023-04-24T20:46:07.293Z,100.00
2023-04-24T20:48:35.686Z,100.00
2023-04-24T20:51:04.032Z,100.00
2023-04-24T20:53:32.475Z,100.00
2023-04-24T20:56:02.602Z,100.00
2023-04-24T20:58:31.109Z,100.00
2023-04-24T21:00:59.410Z,100.00
2023-04-24T21:03:28.040Z,100.00
2023-04-24T21:05:56.570Z,100.00
2023-04-24T21:08:24.902Z,100.00
2023-04-24T21:10:53.234Z,100.00
2023-04-24T21:13:23.117Z,100.00
2023-04-24T21:15:52.010Z,100.00
2023-04-24T21:18:20.814Z,100.00
2023-04-24T21:20:50.158Z,100.00
2023-04-24T21:23:18.597Z,100.00
2023-04-24T21:25:47.240Z,100.00
2023-04-24T21:28:15.732Z,100.00
2023-04-24T21:30:45.618Z,100.00
2023-04-24T21:33:14.066Z,100.00
2023-04-24T21:35:42.304Z,100.00
2023-04-24T21:38:10.578Z,100.00
2023-04-24T21:40:38.951Z,100.00
2023-04-24T21:43:07.344Z,100.00
2023-04-24T21:45:35.597Z,100.00
2023-04-24T21:48:05.568Z,100.00
2023-04-24T21:50:34.014Z,100.00
2023-04-24T21:53:02.403Z,100.00
2023-04-24T21:55:30.958Z,100.00
2023-04-24T21:57:59.458Z,100.00
2023-04-24T22:00:28.038Z,100.00
2023-04-24T22:02:56.406Z,100.00
2023-04-24T22:05:26.193Z,100.00
2023-04-24T22:07:54.470Z,100.00
2023-04-24T22:10:23.165Z,100.00
2023-04-24T22:12:51.425Z,100.00
2023-04-24T22:15:19.814Z,100.00
2023-04-24T22:17:49.890Z,100.00
2023-04-24T22:20:18.395Z,100.00
2023-04-24T22:22:48.734Z,100.00
2023-04-24T22:25:17.072Z,100.00
2023-04-24T22:27:45.581Z,100.00
2023-04-24T22:30:14.414Z,100.00
2023-04-24T22:32:42.812Z,100.00
2023-04-24T22:35:11.198Z,100.00
2023-04-24T22:37:39.529Z,100.00
2023-04-24T22:40:11.032Z,100.00
2023-04-24T22:42:39.348Z,100.00
2023-04-24T22:45:11.408Z,100.00
2023-04-24T22:47:39.834Z,100.00
2023-04-24T22:50:10.722Z,100.00
2023-04-24T22:52:41.144Z,100.00
2023-04-24T22:55:12.153Z,100.00
2023-04-24T22:57:40.508Z,100.00
2023-04-24T23:00:11.382Z,100.00
2023-04-24T23:02:41.489Z,100.00
2023-04-24T23:05:11.319Z,100.00
2023-04-24T23:07:40.064Z,100.00
2023-04-24T23:10:10.878Z,100.00
2023-04-24T23:12:39.599Z,100.00
2023-04-24T23:15:09.207Z,100.00
2023-04-24T23:17:37.576Z,100.00
2023-04-24T23:20:06.840Z,100.00
2023-04-24T23:22:35.105Z,100.00
2023-04-24T23:25:04.176Z,100.00
2023-04-24T23:27:34.305Z,100.00
2023-04-24T23:30:02.607Z,100.00
2023-04-24T23:32:31.049Z,100.00
2023-04-24T23:34:59.300Z,100.00
2023-04-24T23:37:27.821Z,100.00
2023-04-24T23:39:56.217Z,100.00
2023-04-24T23:42:24.730Z,100.00
2023-04-24T23:44:54.748Z,100.00
2023-04-24T23:47:23.067Z,100.00
2023-04-24T23:49:51.282Z,100.00
2023-04-24T23:52:20.656Z,100.00
2023-04-24T23:54:48.987Z,100.00
2023-04-24T23:57:17.204Z,100.00
2023-04-24T23:59:45.998Z,100.00
